sensor_id;sensor_type;location;lat;lon;timestamp;temperature;humidity
44731;DHT22;30458;47.448;19.032;2022-10-26T00:01:43;13.60;99.90
44731;DHT22;30458;47.448;19.032;2022-10-26T00:11:47;13.50;99.90
44731;DHT22;30458;47.448;19.032;2022-10-26T00:21:52;13.10;99.90
44731;DHT22;30458;47.448;19.032;2022-10-26T00:31:55;13.20;99.90
44731;DHT22;30458;47.448;19.032;2022-10-26T00:41:56;13.30;99.90
44731;DHT22;30458;47.448;19.032;2022-10-26T00:51:56;13.30;99.90
44731;DHT22;30458;47.448;19.032;2022-10-26T01:01:58;13.20;99.90
44731;DHT22;30458;47.448;19.032;2022-10-26T01:11:58;13.20;99.90
44731;DHT22;30458;47.448;19.032;2022-10-26T01:22:00;13.20;99.90
44731;DHT22;30458;47.448;19.032;2022-10-26T01:32:21;13.20;99.90
44731;DHT22;30458;47.448;19.032;2022-10-26T01:42:25;13.00;99.90
44731;DHT22;30458;47.448;19.032;2022-10-26T01:52:32;12.90;99.90
44731;DHT22;30458;47.448;19.032;2022-10-26T02:03:14;12.80;99.90
44731;DHT22;30458;47.448;19.032;2022-10-26T02:23:25;12.60;99.90
44731;DHT22;30458;47.448;19.032;2022-10-26T02:33:29;12.60;99.90
44731;DHT22;30458;47.448;19.032;2022-10-26T02:43:36;12.50;99.90
44731;DHT22;30458;47.448;19.032;2022-10-26T02:53:54;12.40;99.90
44731;DHT22;30458;47.448;19.032;2022-10-26T03:03:57;12.40;99.90
44731;DHT22;30458;47.448;19.032;2022-10-26T03:14:03;12.40;99.90
44731;DHT22;30458;47.448;19.032;2022-10-26T03:24:04;12.40;99.90
44731;DHT22;30458;47.448;19.032;2022-10-26T03:34:05;12.50;99.90
44731;DHT22;30458;47.448;19.032;2022-10-26T03:44:08;12.40;99.90
44731;DHT22;30458;47.448;19.032;2022-10-26T03:54:08;12.20;99.90
44731;DHT22;30458;47.448;19.032;2022-10-26T04:04:11;12.20;99.90
44731;DHT22;30458;47.448;19.032;2022-10-26T04:14:12;12.10;99.90
44731;DHT22;30458;47.448;19.032;2022-10-26T04:24:13;12.00;99.90
44731;DHT22;30458;47.448;19.032;2022-10-26T04:34:14;11.90;99.90
44731;DHT22;30458;47.448;19.032;2022-10-26T04:44:15;12.10;99.90
44731;DHT22;30458;47.448;19.032;2022-10-26T04:54:15;12.20;99.90
44731;DHT22;30458;47.448;19.032;2022-10-26T05:04:16;12.10;99.90
44731;DHT22;30458;47.448;19.032;2022-10-26T05:14:17;12.00;99.90
44731;DHT22;30458;47.448;19.032;2022-10-26T05:24:21;11.90;99.90
44731;DHT22;30458;47.448;19.032;2022-10-26T05:34:21;11.80;99.90
44731;DHT22;30458;47.448;19.032;2022-10-26T05:44:24;11.90;99.90
44731;DHT22;30458;47.448;19.032;2022-10-26T05:54:28;12.30;99.90
44731;DHT22;30458;47.448;19.032;2022-10-26T06:04:36;12.90;99.90
44731;DHT22;30458;47.448;19.032;2022-10-26T06:14:38;13.90;99.90
44731;DHT22;30458;47.448;19.032;2022-10-26T06:45:24;16.30;99.90
44731;DHT22;30458;47.448;19.032;2022-10-26T06:55:28;17.50;99.60
44731;DHT22;30458;47.448;19.032;2022-10-26T07:05:30;15.60;99.90
44731;DHT22;30458;47.448;19.032;2022-10-26T07:15:32;14.80;99.90
44731;DHT22;30458;47.448;19.032;2022-10-26T07:25:38;14.00;99.90
44731;DHT22;30458;47.448;19.032;2022-10-26T07:35:39;12.90;99.90
44731;DHT22;30458;47.448;19.032;2022-10-26T07:45:43;13.00;99.90
44731;DHT22;30458;47.448;19.032;2022-10-26T07:55:52;13.80;99.90
44731;DHT22;30458;47.448;19.032;2022-10-26T08:05:53;14.60;99.90
44731;DHT22;30458;47.448;19.032;2022-10-26T08:16:01;17.00;99.90
44731;DHT22;30458;47.448;19.032;2022-10-26T08:26:03;16.50;99.90
44731;DHT22;30458;47.448;19.032;2022-10-26T08:36:04;18.10;99.90
44731;DHT22;30458;47.448;19.032;2022-10-26T08:46:38;20.60;97.60
44731;DHT22;30458;47.448;19.032;2022-10-26T09:27:26;16.90;99.90
44731;DHT22;30458;47.448;19.032;2022-10-26T09:37:31;16.20;99.90
44731;DHT22;30458;47.448;19.032;2022-10-26T09:47:39;15.30;99.90
44731;DHT22;30458;47.448;19.032;2022-10-26T09:57:45;14.50;99.90
44731;DHT22;30458;47.448;19.032;2022-10-26T10:07:47;14.40;99.90
44731;DHT22;30458;47.448;19.032;2022-10-26T10:17:56;14.60;99.90
44731;DHT22;30458;47.448;19.032;2022-10-26T10:27:59;14.60;99.90
44731;DHT22;30458;47.448;19.032;2022-10-26T10:38:00;14.90;99.90
44731;DHT22;30458;47.448;19.032;2022-10-26T10:48:24;15.40;99.90
44731;DHT22;30458;47.448;19.032;2022-10-26T11:09:09;15.40;99.90
44731;DHT22;30458;47.448;19.032;2022-10-26T11:20:27;15.60;99.90
44731;DHT22;30458;47.448;19.032;2022-10-26T11:50:23;15.90;99.90
44731;DHT22;30458;47.448;19.032;2022-10-26T12:00:25;15.60;99.90
44731;DHT22;30458;47.448;19.032;2022-10-26T12:10:29;15.90;99.90
44731;DHT22;30458;47.448;19.032;2022-10-26T12:20:52;15.90;99.90
44731;DHT22;30458;47.448;19.032;2022-10-26T12:41:36;16.70;99.90
44731;DHT22;30458;47.448;19.032;2022-10-26T12:51:40;16.90;99.90
44731;DHT22;30458;47.448;19.032;2022-10-26T13:12:10;17.10;99.90
44731;DHT22;30458;47.448;19.032;2022-10-26T13:22:15;17.10;99.90
44731;DHT22;30458;47.448;19.032;2022-10-26T13:32:23;17.10;99.90
44731;DHT22;30458;47.448;19.032;2022-10-26T13:42:27;17.00;99.90
44731;DHT22;30458;47.448;19.032;2022-10-26T13:52:34;17.10;99.90
44731;DHT22;30458;47.448;19.032;2022-10-26T14:02:41;17.20;99.90
44731;DHT22;30458;47.448;19.032;2022-10-26T14:12:45;17.10;99.90
44731;DHT22;30458;47.448;19.032;2022-10-26T14:22:46;17.10;99.90
44731;DHT22;30458;47.448;19.032;2022-10-26T14:32:47;17.10;99.90
44731;DHT22;30458;47.448;19.032;2022-10-26T14:42:52;17.20;99.90
44731;DHT22;30458;47.448;19.032;2022-10-26T14:53:03;17.30;99.90
44731;DHT22;30458;47.448;19.032;2022-10-26T15:03:15;17.40;99.90
44731;DHT22;30458;47.448;19.032;2022-10-26T15:23:26;17.40;99.90
44731;DHT22;30458;47.448;19.032;2022-10-26T15:33:31;17.30;99.90
44731;DHT22;30458;47.448;19.032;2022-10-26T15:43:32;17.20;99.90
44731;DHT22;30458;47.448;19.032;2022-10-26T15:53:35;17.20;99.90
44731;DHT22;30458;47.448;19.032;2022-10-26T16:03:36;17.10;99.90
44731;DHT22;30458;47.448;19.032;2022-10-26T16:13:36;17.10;99.90
44731;DHT22;30458;47.448;19.032;2022-10-26T16:23:37;17.10;99.90
44731;DHT22;30458;47.448;19.032;2022-10-26T16:33:40;17.00;99.90
44731;DHT22;30458;47.448;19.032;2022-10-26T16:43:46;16.90;99.90
44731;DHT22;30458;47.448;19.032;2022-10-26T16:53:50;17.00;99.90
44731;DHT22;30458;47.448;19.032;2022-10-26T17:03:54;17.10;99.90
44731;DHT22;30458;47.448;19.032;2022-10-26T17:13:55;17.00;99.90
44731;DHT22;30458;47.448;19.032;2022-10-26T17:23:56;17.00;99.90
44731;DHT22;30458;47.448;19.032;2022-10-26T17:33:57;17.00;99.90
44731;DHT22;30458;47.448;19.032;2022-10-26T17:43:58;17.00;99.90
44731;DHT22;30458;47.448;19.032;2022-10-26T17:53:59;17.00;99.90
44731;DHT22;30458;47.448;19.032;2022-10-26T18:04:00;17.00;99.90
44731;DHT22;30458;47.448;19.032;2022-10-26T18:14:03;16.90;99.90
44731;DHT22;30458;47.448;19.032;2022-10-26T18:24:07;16.80;99.90
44731;DHT22;30458;47.448;19.032;2022-10-26T18:34:08;16.70;99.90
44731;DHT22;30458;47.448;19.032;2022-10-26T18:44:12;16.70;99.90
44731;DHT22;30458;47.448;19.032;2022-10-26T18:54:19;16.60;99.90
44731;DHT22;30458;47.448;19.032;2022-10-26T19:04:21;16.50;99.90
44731;DHT22;30458;47.448;19.032;2022-10-26T19:14:24;16.40;99.90
44731;DHT22;30458;47.448;19.032;2022-10-26T19:24:27;16.30;99.90
44731;DHT22;30458;47.448;19.032;2022-10-26T19:34:28;16.20;99.90
44731;DHT22;30458;47.448;19.032;2022-10-26T19:44:28;16.00;99.90
44731;DHT22;30458;47.448;19.032;2022-10-26T19:54:29;15.80;99.90
44731;DHT22;30458;47.448;19.032;2022-10-26T20:04:30;15.70;99.90
44731;DHT22;30458;47.448;19.032;2022-10-26T20:14:33;15.50;99.90
44731;DHT22;30458;47.448;19.032;2022-10-26T20:24:36;15.40;99.90
44731;DHT22;30458;47.448;19.032;2022-10-26T20:34:37;15.30;99.90
44731;DHT22;30458;47.448;19.032;2022-10-26T20:44:40;15.20;99.90
44731;DHT22;30458;47.448;19.032;2022-10-26T20:54:47;15.10;99.90
44731;DHT22;30458;47.448;19.032;2022-10-26T21:04:52;15.10;99.90
44731;DHT22;30458;47.448;19.032;2022-10-26T21:14:52;15.10;99.90
44731;DHT22;30458;47.448;19.032;2022-10-26T21:24:53;15.00;99.90
44731;DHT22;30458;47.448;19.032;2022-10-26T21:34:58;15.10;99.90
44731;DHT22;30458;47.448;19.032;2022-10-26T21:45:02;15.10;99.90
44731;DHT22;30458;47.448;19.032;2022-10-26T21:55:05;15.00;99.90
44731;DHT22;30458;47.448;19.032;2022-10-26T22:05:06;14.90;99.90
44731;DHT22;30458;47.448;19.032;2022-10-26T22:15:11;14.80;99.90
44731;DHT22;30458;47.448;19.032;2022-10-26T22:25:12;14.80;99.90
44731;DHT22;30458;47.448;19.032;2022-10-26T22:35:13;14.80;99.90
44731;DHT22;30458;47.448;19.032;2022-10-26T22:45:16;15.00;99.90
44731;DHT22;30458;47.448;19.032;2022-10-26T22:55:20;14.90;99.90
44731;DHT22;30458;47.448;19.032;2022-10-26T23:05:21;14.80;99.90
44731;DHT22;30458;47.448;19.032;2022-10-26T23:15:24;14.90;99.90
44731;DHT22;30458;47.448;19.032;2022-10-26T23:25:25;14.90;99.90
44731;DHT22;30458;47.448;19.032;2022-10-26T23:35:26;14.80;99.90
44731;DHT22;30458;47.448;19.032;2022-10-26T23:45:31;14.80;99.90
44731;DHT22;30458;47.448;19.032;2022-10-26T23:55:35;14.60;99.90
